sensor_id;sensor_type;location;lat;lon;timestamp;pressure;altitude;pressure_sealevel;temperature;humidity
43681;BME280;29281;50.356;30.894;2023-02-22T00:00:00;99221.05;;;1.88;100.00
43681;BME280;29281;50.356;30.894;2023-02-22T00:01:06;99222.03;;;1.86;100.00
43681;BME280;29281;50.356;30.894;2023-02-22T00:02:12;99220.44;;;1.83;100.00
43681;BME280;29281;50.356;30.894;2023-02-22T00:03:19;99217.96;;;1.80;100.00
43681;BME280;29281;50.356;30.894;2023-02-22T00:04:23;99226.06;;;1.93;100.00
43681;BME280;29281;50.356;30.894;2023-02-22T00:05:27;99232.51;;;1.86;100.00
43681;BME280;29281;50.356;30.894;2023-02-22T00:06:34;99224.13;;;1.60;100.00
43681;BME280;29281;50.356;30.894;2023-02-22T00:07:38;99236.49;;;1.75;100.00
43681;BME280;29281;50.356;30.894;2023-02-22T00:08:45;99226.42;;;1.85;100.00
43681;BME280;29281;50.356;30.894;2023-02-22T00:09:49;99233.28;;;1.88;100.00
43681;BME280;29281;50.356;30.894;2023-02-22T00:10:52;99239.89;;;1.78;100.00
43681;BME280;29281;50.356;30.894;2023-02-22T00:11:56;99244.34;;;1.75;100.00
43681;BME280;29281;50.356;30.894;2023-02-22T00:13:00;99238.98;;;1.60;100.00
43681;BME280;29281;50.356;30.894;2023-02-22T00:14:04;99245.44;;;1.53;100.00
43681;BME280;29281;50.356;30.894;2023-02-22T00:15:08;99244.48;;;1.54;100.00
43681;BME280;29281;50.356;30.894;2023-02-22T00:16:16;99246.63;;;1.46;100.00
43681;BME280;29281;50.356;30.894;2023-02-22T00:17:21;99250.80;;;1.50;100.00
43681;BME280;29281;50.356;30.894;2023-02-22T00:18:27;99254.34;;;1.49;100.00
43681;BME280;29281;50.356;30.894;2023-02-22T00:19:31;99255.05;;;1.52;100.00
43681;BME280;29281;50.356;30.894;2023-02-22T00:20:34;99261.41;;;1.47;100.00
43681;BME280;29281;50.356;30.894;2023-02-22T00:21:43;99257.80;;;1.49;100.00
43681;BME280;29281;50.356;30.894;2023-02-22T00:22:47;99259.29;;;1.36;100.00
43681;BME280;29281;50.356;30.894;2023-02-22T00:23:53;99258.77;;;1.28;100.00
43681;BME280;29281;50.356;30.894;2023-02-22T00:24:58;99261.13;;;1.53;100.00
43681;BME280;29281;50.356;30.894;2023-02-22T00:26:02;99262.73;;;1.74;100.00
43681;BME280;29281;50.356;30.894;2023-02-22T00:27:07;99267.91;;;1.75;100.00
43681;BME280;29281;50.356;30.894;2023-02-22T00:28:11;99265.80;;;1.65;100.00
43681;BME280;29281;50.356;30.894;2023-02-22T00:29:15;99265.22;;;1.58;100.00
43681;BME280;29281;50.356;30.894;2023-02-22T00:30:20;99267.20;;;1.34;100.00
43681;BME280;29281;50.356;30.894;2023-02-22T00:31:24;99267.66;;;1.24;100.00
43681;BME280;29281;50.356;30.894;2023-02-22T00:32:26;99276.71;;;1.17;100.00
43681;BME280;29281;50.356;30.894;2023-02-22T00:33:30;99275.92;;;1.15;100.00
43681;BME280;29281;50.356;30.894;2023-02-22T00:34:33;99274.66;;;1.23;100.00
43681;BME280;29281;50.356;30.894;2023-02-22T00:35:37;99278.58;;;1.33;100.00
43681;BME280;29281;50.356;30.894;2023-02-22T00:36:46;99276.58;;;1.38;100.00
43681;BME280;29281;50.356;30.894;2023-02-22T00:37:51;99297.31;;;1.43;100.00
43681;BME280;29281;50.356;30.894;2023-02-22T00:38:56;99289.66;;;1.38;100.00
43681;BME280;29281;50.356;30.894;2023-02-22T00:40:01;99288.00;;;1.37;100.00
43681;BME280;29281;50.356;30.894;2023-02-22T00:41:04;99296.06;;;1.52;100.00
43681;BME280;29281;50.356;30.894;2023-02-22T00:42:09;99298.19;;;1.62;100.00
43681;BME280;29281;50.356;30.894;2023-02-22T00:43:12;99300.16;;;1.57;100.00
43681;BME280;29281;50.356;30.894;2023-02-22T00:44:17;99292.37;;;1.56;100.00
43681;BME280;29281;50.356;30.894;2023-02-22T00:45:21;99303.13;;;1.50;100.00
43681;BME280;29281;50.356;30.894;2023-02-22T00:46:25;99308.63;;;1.44;100.00
43681;BME280;29281;50.356;30.894;2023-02-22T00:47:28;99305.23;;;1.41;100.00
43681;BME280;29281;50.356;30.894;2023-02-22T00:48:34;99307.35;;;1.33;100.00
43681;BME280;29281;50.356;30.894;2023-02-22T00:49:37;99306.14;;;1.40;100.00
43681;BME280;29281;50.356;30.894;2023-02-22T00:50:42;99313.50;;;1.32;100.00
43681;BME280;29281;50.356;30.894;2023-02-22T00:51:45;99320.50;;;1.32;100.00
43681;BME280;29281;50.356;30.894;2023-02-22T00:52:52;99323.30;;;1.27;100.00
43681;BME280;29281;50.356;30.894;2023-02-22T00:53:56;99323.11;;;1.32;100.00
43681;BME280;29281;50.356;30.894;2023-02-22T00:54:59;99319.77;;;1.28;100.00
43681;BME280;29281;50.356;30.894;2023-02-22T00:56:03;99321.61;;;1.26;100.00
43681;BME280;29281;50.356;30.894;2023-02-22T00:57:06;99333.77;;;1.27;100.00
43681;BME280;29281;50.356;30.894;2023-02-22T00:58:10;99336.19;;;1.32;100.00
43681;BME280;29281;50.356;30.894;2023-02-22T00:59:13;99334.30;;;1.54;100.00
43681;BME280;29281;50.356;30.894;2023-02-22T01:00:17;99334.73;;;1.45;100.00
43681;BME280;29281;50.356;30.894;2023-02-22T01:01:22;99336.84;;;1.37;100.00
43681;BME280;29281;50.356;30.894;2023-02-22T01:02:26;99336.42;;;1.46;100.00
43681;BME280;29281;50.356;30.894;2023-02-22T01:03:30;99334.48;;;1.31;100.00
43681;BME280;29281;50.356;30.894;2023-02-22T01:05:51;99344.76;;;1.35;100.00
43681;BME280;29281;50.356;30.894;2023-02-22T01:06:59;99340.44;;;1.34;100.00
43681;BME280;29281;50.356;30.894;2023-02-22T01:08:03;99344.36;;;1.24;100.00
43681;BME280;29281;50.356;30.894;2023-02-22T01:09:08;99346.66;;;1.32;100.00
43681;BME280;29281;50.356;30.894;2023-02-22T01:10:13;99347.15;;;1.40;100.00
43681;BME280;29281;50.356;30.894;2023-02-22T01:11:17;99349.98;;;1.35;100.00
43681;BME280;29281;50.356;30.894;2023-02-22T01:12:22;99358.75;;;1.34;100.00
43681;BME280;29281;50.356;30.894;2023-02-22T01:13:26;99361.81;;;1.24;100.00
43681;BME280;29281;50.356;30.894;2023-02-22T01:14:30;99352.14;;;1.26;100.00
43681;BME280;29281;50.356;30.894;2023-02-22T01:15:36;99354.98;;;1.21;100.00
43681;BME280;29281;50.356;30.894;2023-02-22T01:16:39;99362.60;;;1.26;100.00
43681;BME280;29281;50.356;30.894;2023-02-22T01:17:43;99358.75;;;1.34;100.00
43681;BME280;29281;50.356;30.894;2023-02-22T01:18:46;99357.97;;;1.32;100.00
43681;BME280;29281;50.356;30.894;2023-02-22T01:19:53;99356.52;;;1.25;100.00
43681;BME280;29281;50.356;30.894;2023-02-22T01:20:56;99372.62;;;1.16;100.00
43681;BME280;29281;50.356;30.894;2023-02-22T01:22:01;99374.64;;;1.30;100.00
43681;BME280;29281;50.356;30.894;2023-02-22T01:23:06;99366.47;;;1.37;100.00
43681;BME280;29281;50.356;30.894;2023-02-22T01:24:11;99364.05;;;1.33;100.00
43681;BME280;29281;50.356;30.894;2023-02-22T01:25:22;99375.05;;;1.21;100.00
43681;BME280;29281;50.356;30.894;2023-02-22T01:26:26;99374.89;;;1.24;100.00
43681;BME280;29281;50.356;30.894;2023-02-22T01:27:30;99372.88;;;1.30;100.00
43681;BME280;29281;50.356;30.894;2023-02-22T01:28:36;99384.31;;;1.28;100.00
43681;BME280;29281;50.356;30.894;2023-02-22T01:29:39;99382.17;;;1.17;100.00
43681;BME280;29281;50.356;30.894;2023-02-22T01:30:43;99380.84;;;1.07;100.00
43681;BME280;29281;50.356;30.894;2023-02-22T01:31:51;99394.25;;;0.99;100.00
43681;BME280;29281;50.356;30.894;2023-02-22T01:32:57;99391.84;;;1.15;100.00
43681;BME280;29281;50.356;30.894;2023-02-22T01:34:00;99394.39;;;1.17;100.00
43681;BME280;29281;50.356;30.894;2023-02-22T01:35:05;99391.30;;;1.07;100.00
43681;BME280;29281;50.356;30.894;2023-02-22T01:36:13;99397.13;;;1.14;100.00
43681;BME280;29281;50.356;30.894;2023-02-22T01:37:16;99395.12;;;1.20;100.00
43681;BME280;29281;50.356;30.894;2023-02-22T01:38:29;99388.75;;;1.26;100.00
43681;BME280;29281;50.356;30.894;2023-02-22T01:39:29;99404.37;;;1.07;100.00
43681;BME280;29281;50.356;30.894;2023-02-22T01:40:41;99394.58;;;1.12;100.00
43681;BME280;29281;50.356;30.894;2023-02-22T01:41:41;99400.80;;;1.30;100.00
43681;BME280;29281;50.356;30.894;2023-02-22T01:42:48;99407.93;;;1.06;100.00
43681;BME280;29281;50.356;30.894;2023-02-22T01:43:52;99409.02;;;1.00;100.00
43681;BME280;29281;50.356;30.894;2023-02-22T01:46:19;99409.48;;;0.90;100.00
43681;BME280;29281;50.356;30.894;2023-02-22T01:47:25;99411.41;;;0.85;100.00
43681;BME280;29281;50.356;30.894;2023-02-22T01:48:29;99407.56;;;0.93;100.00
43681;BME280;29281;50.356;30.894;2023-02-22T01:49:37;99415.22;;;0.98;100.00
43681;BME280;29281;50.356;30.894;2023-02-22T01:50:41;99416.92;;;0.99;100.00
43681;BME280;29281;50.356;30.894;2023-02-22T01:51:48;99424.66;;;0.80;100.00
43681;BME280;29281;50.356;30.894;2023-02-22T01:52:51;99423.02;;;0.78;100.00
43681;BME280;29281;50.356;30.894;2023-02-22T01:53:56;99425.90;;;0.72;100.00
43681;BME280;29281;50.356;30.894;2023-02-22T01:55:00;99428.95;;;0.61;100.00
43681;BME280;29281;50.356;30.894;2023-02-22T01:56:04;99429.59;;;0.66;100.00
43681;BME280;29281;50.356;30.894;2023-02-22T01:57:12;99432.03;;;0.70;100.00
43681;BME280;29281;50.356;30.894;2023-02-22T01:58:15;99439.44;;;0.81;100.00
43681;BME280;29281;50.356;30.894;2023-02-22T01:59:19;99446.83;;;0.92;100.00
43681;BME280;29281;50.356;30.894;2023-02-22T02:00:22;99441.14;;;0.82;100.00
43681;BME280;29281;50.356;30.894;2023-02-22T02:01:27;99443.02;;;0.79;100.00
43681;BME280;29281;50.356;30.894;2023-02-22T02:02:31;99448.24;;;0.79;100.00
43681;BME280;29281;50.356;30.894;2023-02-22T02:03:36;99449.16;;;0.78;100.00
43681;BME280;29281;50.356;30.894;2023-02-22T02:04:40;99455.11;;;0.81;100.00
43681;BME280;29281;50.356;30.894;2023-02-22T02:05:43;99450.27;;;0.72;100.00
43681;BME280;29281;50.356;30.894;2023-02-22T02:06:51;99452.27;;;0.87;100.00
43681;BME280;29281;50.356;30.894;2023-02-22T02:07:55;99458.02;;;0.95;100.00
43681;BME280;29281;50.356;30.894;2023-02-22T02:09:07;99467.45;;;0.78;100.00
43681;BME280;29281;50.356;30.894;2023-02-22T02:10:12;99464.67;;;0.60;100.00
43681;BME280;29281;50.356;30.894;2023-02-22T02:11:17;99461.69;;;0.69;100.00
43681;BME280;29281;50.356;30.894;2023-02-22T02:12:22;99458.45;;;0.63;100.00
43681;BME280;29281;50.356;30.894;2023-02-22T02:13:25;99462.34;;;0.53;100.00
43681;BME280;29281;50.356;30.894;2023-02-22T02:14:30;99476.26;;;0.53;100.00
43681;BME280;29281;50.356;30.894;2023-02-22T02:15:33;99470.55;;;0.44;100.00
43681;BME280;29281;50.356;30.894;2023-02-22T02:16:40;99465.87;;;0.52;100.00
43681;BME280;29281;50.356;30.894;2023-02-22T02:17:48;99470.61;;;0.64;100.00
43681;BME280;29281;50.356;30.894;2023-02-22T02:18:52;99474.67;;;0.49;100.00
43681;BME280;29281;50.356;30.894;2023-02-22T02:20:02;99476.63;;;0.44;100.00
43681;BME280;29281;50.356;30.894;2023-02-22T02:21:10;99475.83;;;0.42;100.00
43681;BME280;29281;50.356;30.894;2023-02-22T02:22:29;99477.70;;;0.39;100.00
43681;BME280;29281;50.356;30.894;2023-02-22T02:27:21;99493.53;;;0.57;100.00
43681;BME280;29281;50.356;30.894;2023-02-22T02:28:43;99492.62;;;0.58;100.00
43681;BME280;29281;50.356;30.894;2023-02-22T02:29:53;99503.60;;;0.45;99.86
43681;BME280;29281;50.356;30.894;2023-02-22T02:31:04;99493.06;;;0.46;99.53
43681;BME280;29281;50.356;30.894;2023-02-22T02:34:34;99509.26;;;0.56;100.00
43681;BME280;29281;50.356;30.894;2023-02-22T02:35:43;99504.58;;;0.64;99.96
43681;BME280;29281;50.356;30.894;2023-02-22T02:36:53;99511.34;;;0.69;100.00
43681;BME280;29281;50.356;30.894;2023-02-22T02:38:00;99510.52;;;0.91;100.00
43681;BME280;29281;50.356;30.894;2023-02-22T02:39:22;99512.92;;;0.95;100.00
43681;BME280;29281;50.356;30.894;2023-02-22T02:40:28;99510.02;;;1.03;100.00
43681;BME280;29281;50.356;30.894;2023-02-22T02:41:46;99511.70;;;0.82;98.73
43681;BME280;29281;50.356;30.894;2023-02-22T02:42:56;99518.20;;;0.94;100.00
43681;BME280;29281;50.356;30.894;2023-02-22T02:44:00;99515.28;;;0.80;99.48
43681;BME280;29281;50.356;30.894;2023-02-22T02:45:10;99529.85;;;0.63;100.00
43681;BME280;29281;50.356;30.894;2023-02-22T02:46:15;99520.62;;;0.55;100.00
43681;BME280;29281;50.356;30.894;2023-02-22T02:47:21;99518.10;;;0.75;99.75
43681;BME280;29281;50.356;30.894;2023-02-22T02:48:25;99526.05;;;0.72;99.26
43681;BME280;29281;50.356;30.894;2023-02-22T02:49:32;99525.94;;;0.75;98.46
43681;BME280;29281;50.356;30.894;2023-02-22T02:50:42;99536.25;;;0.78;97.39
43681;BME280;29281;50.356;30.894;2023-02-22T02:51:49;99533.58;;;0.80;97.65
43681;BME280;29281;50.356;30.894;2023-02-22T02:52:55;99535.08;;;0.63;96.16
43681;BME280;29281;50.356;30.894;2023-02-22T02:54:03;99537.20;;;0.54;95.95
43681;BME280;29281;50.356;30.894;2023-02-22T02:55:07;99535.80;;;0.45;97.17
43681;BME280;29281;50.356;30.894;2023-02-22T02:56:15;99541.30;;;0.61;98.73
43681;BME280;29281;50.356;30.894;2023-02-22T02:57:17;99547.30;;;0.63;96.99
43681;BME280;29281;50.356;30.894;2023-02-22T02:58:21;99550.67;;;0.43;95.60
43681;BME280;29281;50.356;30.894;2023-02-22T02:59:28;99558.16;;;0.52;95.71
43681;BME280;29281;50.356;30.894;2023-02-22T03:00:36;99558.54;;;0.65;96.38
43681;BME280;29281;50.356;30.894;2023-02-22T03:03:03;99558.79;;;0.59;95.88
43681;BME280;29281;50.356;30.894;2023-02-22T03:07:54;99579.16;;;0.49;97.35
43681;BME280;29281;50.356;30.894;2023-02-22T03:10:19;99578.45;;;0.46;96.10
43681;BME280;29281;50.356;30.894;2023-02-22T03:11:23;99587.95;;;0.47;95.20
43681;BME280;29281;50.356;30.894;2023-02-22T03:16:36;99591.19;;;0.77;92.93
43681;BME280;29281;50.356;30.894;2023-02-22T03:17:55;99597.63;;;0.68;94.59
43681;BME280;29281;50.356;30.894;2023-02-22T03:20:27;99614.11;;;0.70;89.98
43681;BME280;29281;50.356;30.894;2023-02-22T03:22:44;99616.94;;;0.64;90.40
43681;BME280;29281;50.356;30.894;2023-02-22T03:25:20;99620.45;;;0.63;90.58
43681;BME280;29281;50.356;30.894;2023-02-22T03:26:28;99620.34;;;0.66;91.58
43681;BME280;29281;50.356;30.894;2023-02-22T03:27:42;99625.88;;;0.58;91.50
43681;BME280;29281;50.356;30.894;2023-02-22T03:28:43;99630.85;;;0.64;91.03
43681;BME280;29281;50.356;30.894;2023-02-22T03:29:47;99618.83;;;0.60;92.59
43681;BME280;29281;50.356;30.894;2023-02-22T03:32:02;99622.16;;;0.64;93.35
43681;BME280;29281;50.356;30.894;2023-02-22T03:33:10;99622.56;;;0.53;92.15
43681;BME280;29281;50.356;30.894;2023-02-22T03:34:21;99627.14;;;0.47;93.12
43681;BME280;29281;50.356;30.894;2023-02-22T03:35:30;99642.05;;;0.45;91.59
43681;BME280;29281;50.356;30.894;2023-02-22T03:37:18;99624.02;;;0.37;90.95
43681;BME280;29281;50.356;30.894;2023-02-22T03:37:45;99638.62;;;0.43;90.69
43681;BME280;29281;50.356;30.894;2023-02-22T03:38:50;99633.36;;;0.44;90.67
43681;BME280;29281;50.356;30.894;2023-02-22T03:39:56;99637.54;;;0.48;90.59
43681;BME280;29281;50.356;30.894;2023-02-22T03:41:00;99638.98;;;0.57;90.92
43681;BME280;29281;50.356;30.894;2023-02-22T03:42:15;99648.34;;;0.62;90.72
43681;BME280;29281;50.356;30.894;2023-02-22T03:43:18;99643.46;;;0.53;92.17
43681;BME280;29281;50.356;30.894;2023-02-22T03:44:24;99646.77;;;0.58;93.26
43681;BME280;29281;50.356;30.894;2023-02-22T03:45:29;99645.45;;;0.22;93.56
43681;BME280;29281;50.356;30.894;2023-02-22T03:46:35;99645.83;;;0.11;94.81
43681;BME280;29281;50.356;30.894;2023-02-22T03:47:41;99644.59;;;-0.04;95.66
43681;BME280;29281;50.356;30.894;2023-02-22T03:48:53;99641.03;;;-0.01;96.14
43681;BME280;29281;50.356;30.894;2023-02-22T03:50:01;99649.48;;;0.06;96.33
43681;BME280;29281;50.356;30.894;2023-02-22T03:51:05;99644.69;;;-0.07;96.94
43681;BME280;29281;50.356;30.894;2023-02-22T03:52:14;99643.56;;;0.00;97.43
43681;BME280;29281;50.356;30.894;2023-02-22T03:53:18;99649.48;;;0.06;97.44
43681;BME280;29281;50.356;30.894;2023-02-22T03:54:23;99654.08;;;-0.01;96.52
43681;BME280;29281;50.356;30.894;2023-02-22T03:55:27;99657.64;;;-0.04;95.82
43681;BME280;29281;50.356;30.894;2023-02-22T03:56:38;99647.30;;;-0.07;94.83
43681;BME280;29281;50.356;30.894;2023-02-22T03:57:39;99656.13;;;-0.11;95.32
43681;BME280;29281;50.356;30.894;2023-02-22T03:58:43;99654.64;;;-0.18;96.12
43681;BME280;29281;50.356;30.894;2023-02-22T03:59:53;99660.67;;;-0.16;95.48
43681;BME280;29281;50.356;30.894;2023-02-22T04:00:55;99657.13;;;-0.15;96.95
43681;BME280;29281;50.356;30.894;2023-02-22T04:01:59;99660.80;;;-0.20;96.44
43681;BME280;29281;50.356;30.894;2023-02-22T04:03:04;99663.81;;;-0.06;97.24
43681;BME280;29281;50.356;30.894;2023-02-22T04:04:08;99669.47;;;0.07;96.63
43681;BME280;29281;50.356;30.894;2023-02-22T04:05:12;99671.61;;;0.20;96.26
43681;BME280;29281;50.356;30.894;2023-02-22T04:06:16;99674.45;;;0.14;96.56
43681;BME280;29281;50.356;30.894;2023-02-22T04:07:20;99673.21;;;-0.01;95.51
43681;BME280;29281;50.356;30.894;2023-02-22T04:08:24;99669.89;;;-0.06;95.58
43681;BME280;29281;50.356;30.894;2023-02-22T04:09:27;99691.40;;;0.01;94.96
43681;BME280;29281;50.356;30.894;2023-02-22T04:10:32;99682.13;;;-0.08;94.14
43681;BME280;29281;50.356;30.894;2023-02-22T04:11:35;99686.99;;;-0.23;94.06
43681;BME280;29281;50.356;30.894;2023-02-22T04:12:39;99690.41;;;-0.21;95.15
43681;BME280;29281;50.356;30.894;2023-02-22T04:13:42;99698.10;;;-0.17;93.79
43681;BME280;29281;50.356;30.894;2023-02-22T04:14:45;99705.77;;;-0.12;93.58
43681;BME280;29281;50.356;30.894;2023-02-22T04:15:49;99706.83;;;-0.18;93.51
43681;BME280;29281;50.356;30.894;2023-02-22T04:16:53;99708.59;;;-0.18;93.68
43681;BME280;29281;50.356;30.894;2023-02-22T04:18:01;99696.08;;;-0.09;93.73
43681;BME280;29281;50.356;30.894;2023-02-22T04:19:02;99699.36;;;-0.02;94.04
43681;BME280;29281;50.356;30.894;2023-02-22T04:20:05;99709.98;;;-0.08;93.79
43681;BME280;29281;50.356;30.894;2023-02-22T04:21:12;99706.11;;;-0.23;92.35
43681;BME280;29281;50.356;30.894;2023-02-22T04:22:17;99713.18;;;-0.26;92.93
43681;BME280;29281;50.356;30.894;2023-02-22T04:23:21;99710.34;;;-0.19;93.84
43681;BME280;29281;50.356;30.894;2023-02-22T04:24:24;99709.67;;;-0.25;93.71
43681;BME280;29281;50.356;30.894;2023-02-22T04:25:28;99707.52;;;-0.13;94.04
43681;BME280;29281;50.356;30.894;2023-02-22T04:26:32;99708.90;;;-0.01;93.21
43681;BME280;29281;50.356;30.894;2023-02-22T04:27:36;99705.58;;;-0.06;92.49
43681;BME280;29281;50.356;30.894;2023-02-22T04:28:40;99710.48;;;0.03;92.44
43681;BME280;29281;50.356;30.894;2023-02-22T04:29:51;99714.61;;;0.10;92.56
43681;BME280;29281;50.356;30.894;2023-02-22T04:30:57;99717.77;;;-0.07;92.54
43681;BME280;29281;50.356;30.894;2023-02-22T04:32:00;99720.28;;;-0.04;93.20
43681;BME280;29281;50.356;30.894;2023-02-22T04:33:03;99728.97;;;-0.03;93.58
43681;BME280;29281;50.356;30.894;2023-02-22T04:34:07;99723.39;;;0.08;94.44
43681;BME280;29281;50.356;30.894;2023-02-22T04:35:12;99724.83;;;0.16;94.32
43681;BME280;29281;50.356;30.894;2023-02-22T04:36:17;99730.98;;;0.15;92.78
43681;BME280;29281;50.356;30.894;2023-02-22T04:37:21;99737.39;;;0.05;92.17
43681;BME280;29281;50.356;30.894;2023-02-22T04:38:25;99738.88;;;0.14;93.20
43681;BME280;29281;50.356;30.894;2023-02-22T04:39:29;99735.89;;;0.24;93.50
43681;BME280;29281;50.356;30.894;2023-02-22T04:40:33;99748.63;;;0.33;93.23
43681;BME280;29281;50.356;30.894;2023-02-22T04:41:37;99742.16;;;0.19;92.88
43681;BME280;29281;50.356;30.894;2023-02-22T04:42:41;99746.78;;;-0.16;93.48
43681;BME280;29281;50.356;30.894;2023-02-22T04:43:45;99740.76;;;-0.18;94.45
43681;BME280;29281;50.356;30.894;2023-02-22T04:44:53;99748.42;;;-0.13;94.50
43681;BME280;29281;50.356;30.894;2023-02-22T04:45:56;99745.48;;;-0.03;94.16
43681;BME280;29281;50.356;30.894;2023-02-22T04:47:00;99748.19;;;-0.06;93.09
43681;BME280;29281;50.356;30.894;2023-02-22T04:48:02;99754.05;;;0.01;93.31
43681;BME280;29281;50.356;30.894;2023-02-22T04:49:05;99753.91;;;0.06;93.75
43681;BME280;29281;50.356;30.894;2023-02-22T04:50:11;99758.42;;;0.00;94.05
43681;BME280;29281;50.356;30.894;2023-02-22T04:51:14;99757.02;;;-0.10;93.57
43681;BME280;29281;50.356;30.894;2023-02-22T04:52:28;99759.05;;;0.09;94.00
43681;BME280;29281;50.356;30.894;2023-02-22T04:53:32;99749.91;;;0.22;93.10
43681;BME280;29281;50.356;30.894;2023-02-22T04:54:36;99761.16;;;0.24;92.79
43681;BME280;29281;50.356;30.894;2023-02-22T04:55:39;99764.27;;;0.09;93.22
43681;BME280;29281;50.356;30.894;2023-02-22T04:56:43;99763.90;;;-0.07;93.67
43681;BME280;29281;50.356;30.894;2023-02-22T04:57:46;99764.84;;;-0.10;94.68
43681;BME280;29281;50.356;30.894;2023-02-22T04:58:49;99773.48;;;-0.08;94.30
43681;BME280;29281;50.356;30.894;2023-02-22T04:59:52;99766.16;;;0.04;94.40
43681;BME280;29281;50.356;30.894;2023-02-22T05:00:58;99770.48;;;0.05;93.35
43681;BME280;29281;50.356;30.894;2023-02-22T05:02:01;99772.67;;;-0.10;94.07
43681;BME280;29281;50.356;30.894;2023-02-22T05:03:04;99780.41;;;-0.07;95.57
43681;BME280;29281;50.356;30.894;2023-02-22T05:04:09;99775.06;;;-0.02;95.61
43681;BME280;29281;50.356;30.894;2023-02-22T05:05:14;99786.97;;;-0.21;94.83
43681;BME280;29281;50.356;30.894;2023-02-22T05:06:18;99781.88;;;-0.26;96.11
43681;BME280;29281;50.356;30.894;2023-02-22T05:07:21;99776.91;;;-0.33;96.46
43681;BME280;29281;50.356;30.894;2023-02-22T05:08:24;99783.20;;;-0.41;96.60
43681;BME280;29281;50.356;30.894;2023-02-22T05:09:27;99789.79;;;-0.29;97.01
43681;BME280;29281;50.356;30.894;2023-02-22T05:10:30;99780.84;;;-0.20;97.30
43681;BME280;29281;50.356;30.894;2023-02-22T05:11:33;99788.97;;;-0.02;97.53
43681;BME280;29281;50.356;30.894;2023-02-22T05:12:36;99787.21;;;-0.01;96.55
43681;BME280;29281;50.356;30.894;2023-02-22T05:13:42;99789.66;;;-0.24;96.91
43681;BME280;29281;50.356;30.894;2023-02-22T05:14:45;99796.03;;;-0.33;96.66
43681;BME280;29281;50.356;30.894;2023-02-22T05:15:49;99801.41;;;-0.39;97.28
43681;BME280;29281;50.356;30.894;2023-02-22T05:16:56;99799.05;;;-0.47;97.14
43681;BME280;29281;50.356;30.894;2023-02-22T05:17:59;99798.28;;;-0.50;97.29
43681;BME280;29281;50.356;30.894;2023-02-22T05:19:03;99794.56;;;-0.43;96.84
43681;BME280;29281;50.356;30.894;2023-02-22T05:20:08;99803.20;;;-0.41;96.82
43681;BME280;29281;50.356;30.894;2023-02-22T05:21:12;99799.58;;;-0.36;96.16
43681;BME280;29281;50.356;30.894;2023-02-22T05:22:15;99804.02;;;-0.39;95.99
43681;BME280;29281;50.356;30.894;2023-02-22T05:23:19;99808.30;;;-0.37;95.52
43681;BME280;29281;50.356;30.894;2023-02-22T05:24:22;99806.67;;;-0.41;95.23
43681;BME280;29281;50.356;30.894;2023-02-22T05:25:26;99812.09;;;-0.47;94.85
43681;BME280;29281;50.356;30.894;2023-02-22T05:26:30;99821.47;;;-0.41;93.96
43681;BME280;29281;50.356;30.894;2023-02-22T05:27:34;99829.17;;;-0.37;93.61
43681;BME280;29281;50.356;30.894;2023-02-22T05:28:37;99824.94;;;-0.41;92.56
43681;BME280;29281;50.356;30.894;2023-02-22T05:29:40;99832.31;;;-0.25;92.21
43681;BME280;29281;50.356;30.894;2023-02-22T05:30:44;99835.64;;;-0.20;91.38
43681;BME280;29281;50.356;30.894;2023-02-22T05:31:49;99830.09;;;-0.10;90.80
43681;BME280;29281;50.356;30.894;2023-02-22T05:32:52;99841.56;;;-0.15;90.04
43681;BME280;29281;50.356;30.894;2023-02-22T05:33:57;99847.03;;;-0.23;89.85
43681;BME280;29281;50.356;30.894;2023-02-22T05:35:00;99850.84;;;-0.05;90.98
43681;BME280;29281;50.356;30.894;2023-02-22T05:36:04;99849.78;;;0.00;90.77
43681;BME280;29281;50.356;30.894;2023-02-22T05:37:07;99853.97;;;0.06;91.11
43681;BME280;29281;50.356;30.894;2023-02-22T05:38:12;99863.08;;;-0.07;88.60
43681;BME280;29281;50.356;30.894;2023-02-22T05:39:16;99856.92;;;-0.05;89.10
43681;BME280;29281;50.356;30.894;2023-02-22T05:40:21;99858.59;;;-0.02;88.93
43681;BME280;29281;50.356;30.894;2023-02-22T05:41:24;99861.20;;;-0.02;88.65
43681;BME280;29281;50.356;30.894;2023-02-22T05:42:28;99870.95;;;-0.09;85.74
43681;BME280;29281;50.356;30.894;2023-02-22T05:43:31;99875.59;;;0.11;86.59
43681;BME280;29281;50.356;30.894;2023-02-22T05:44:35;99880.17;;;0.03;85.58
43681;BME280;29281;50.356;30.894;2023-02-22T05:45:38;99881.70;;;0.10;84.78
43681;BME280;29281;50.356;30.894;2023-02-22T05:46:41;99890.19;;;0.17;84.37
43681;BME280;29281;50.356;30.894;2023-02-22T05:47:45;99882.95;;;0.26;84.70
43681;BME280;29281;50.356;30.894;2023-02-22T05:48:48;99884.75;;;0.24;83.20
43681;BME280;29281;50.356;30.894;2023-02-22T05:49:51;99893.39;;;0.26;84.08
43681;BME280;29281;50.356;30.894;2023-02-22T05:50:55;99893.86;;;0.39;83.78
43681;BME280;29281;50.356;30.894;2023-02-22T05:51:58;99905.73;;;0.21;83.08
43681;BME280;29281;50.356;30.894;2023-02-22T05:53:02;99905.00;;;0.16;83.01
43681;BME280;29281;50.356;30.894;2023-02-22T05:54:07;99907.10;;;0.33;83.33
43681;BME280;29281;50.356;30.894;2023-02-22T05:55:12;99904.61;;;0.00;82.94
43681;BME280;29281;50.356;30.894;2023-02-22T05:56:19;99912.77;;;-0.10;84.13
43681;BME280;29281;50.356;30.894;2023-02-22T05:57:22;99911.54;;;0.02;84.22
43681;BME280;29281;50.356;30.894;2023-02-22T05:58:25;99914.11;;;0.03;82.84
43681;BME280;29281;50.356;30.894;2023-02-22T05:59:28;99919.81;;;0.16;83.50
43681;BME280;29281;50.356;30.894;2023-02-22T06:00:31;99913.12;;;0.07;83.45
43681;BME280;29281;50.356;30.894;2023-02-22T06:01:41;99922.84;;;0.02;81.85
43681;BME280;29281;50.356;30.894;2023-02-22T06:02:45;99928.50;;;0.16;82.07
43681;BME280;29281;50.356;30.894;2023-02-22T06:03:49;99928.28;;;0.24;82.19
43681;BME280;29281;50.356;30.894;2023-02-22T06:04:52;99924.64;;;0.29;82.06
43681;BME280;29281;50.356;30.894;2023-02-22T06:05:57;99932.61;;;0.53;81.88